AKDT,Max TemperatureF,Mean TemperatureF,Min TemperatureF,Max Dew PointF,MeanDew PointF,Min DewpointF,Max Humidity, Mean Humidity, Min Humidity, Max Sea Level PressureIn, Mean Sea Level PressureIn, Min Sea Level PressureIn, Max VisibilityMiles, Mean VisibilityMiles, Min VisibilityMiles, Max Wind SpeedMPH, Mean Wind SpeedMPH, Max Gust SpeedMPH,PrecipitationIn, CloudCover, Events, WindDirDegrees
2012-10-1,44,28,12,22,18,11,92,63,19,30.44,30.25,30.03,10,10,10,12,3,,0.00,2,,150
2012-10-2,42,30,18,30,21,14,78,61,40,30.49,30.40,30.24,10,10,10,21,8,31,0.00,6,,133
2012-10-3,48,37,26,34,29,25,92,67,33,30.37,30.29,30.16,10,10,10,17,9,26,0.00,5,Rain,159
2012-10-4,54,44,35,43,39,33,77,68,57,30.16,30.10,30.06,10,10,10,23,17,33,0.00,6,Rain,164
2012-10-5,55,52,48,48,44,41,89,73,57,30.22,30.15,30.05,10,10,9,25,19,36,0.02,7,Rain,168
2012-10-6,53,47,41,42,39,36,93,79,53,30.31,30.20,30.06,10,10,6,16,10,25,0.20,7,Rain,187
2012-10-7,45,41,37,42,39,35,96,89,82,30.33,30.29,30.19,10,10,10,7,3,,0.12,7,Rain,301
2012-10-8,48,44,39,44,42,38,97,92,77,30.25,30.18,30.10,10,10,10,7,3,,0.00,6,Fog,274
2012-10-9,45,41,37,40,35,27,97,83,53,30.20,30.17,30.11,10,10,10,10,4,,0.01,8,Rain,343
2012-10-10,39,34,28,34,27,12,100,74,33,30.17,30.13,30.05,10,8,2,18,4,26,0.04,6,Snow,347
2012-10-11,33,24,14,20,16,11,92,72,51,30.11,29.93,29.66,10,10,10,10,4,18,0.00,3,,23
2012-10-12,28,17,6,17,10,2,92,80,54,29.70,29.48,29.20,10,10,10,6,3,,0.00,2,Fog,355
2012-10-13,28,18,7,18,11,3,92,84,61,29.40,29.35,29.21,10,9,1,4,1,,0.08,6,Snow,90
2012-10-14,30,18,7,19,13,3,92,79,48,29.39,29.22,29.02,10,10,10,5,1,,0.00,5,,48
2012-10-15,36,25,14,29,22,19,96,88,67,29.13,29.05,28.96,10,6,0,12,3,,0.08,7,Fog-Snow,324
2012-10-16,30,18,6,27,18,6,100,90,70,29.58,29.30,29.01,10,9,2,7,2,,0.01,6,Snow,4
2012-10-17,36,23,10,20,15,9,96,72,26,29.79,29.67,29.48,10,10,7,13,4,17,0.02,4,Snow,344
2012-10-18,30,23,16,16,12,10,88,66,41,29.86,29.78,29.62,10,10,10,14,5,21,0.00,6,,11
2012-10-19,28,16,3,11,8,2,83,61,31,30.16,30.01,29.82,10,10,10,21,7,28,0.00,2,,352
2012-10-20,28,19,10,7,6,5,59,49,24,30.40,30.29,30.13,10,10,10,31,16,43,0.00,2,,348
2012-10-21,21,8,-6,6,-1,-11,85,69,37,30.51,30.46,30.29,10,10,10,16,4,21,0.00,0,,37
2012-10-22,19,2,-14,5,-8,-18,85,73,40,30.49,30.44,30.23,10,10,10,4,1,,0.00,0,,323
2012-10-23,18,2,-14,3,-7,-18,83,72,39,30.53,30.48,30.28,10,10,10,5,1,,0.00,0,,333
2012-10-24,21,5,-11,6,-6,-17,87,73,38,30.66,30.56,30.35,10,10,10,5,1,,0.00,0,,105
2012-10-25,18,2,-14,5,-7,-18,87,75,45,30.76,30.68,30.46,10,10,10,5,0,,0.00,0,,342
2012-10-26,16,2,-11,5,-7,-15,92,77,48,30.65,30.56,30.28,10,10,10,6,2,,0.00,0,,355
2012-10-27,17,3,-11,5,-7,-15,83,75,45,30.44,30.31,30.03,10,10,10,5,1,,0.00,1,Fog,2
2012-10-28,18,4,-9,8,-4,-13,84,77,52,30.24,30.19,30.01,10,10,10,6,1,,0.00,1,,330
2012-10-29,18,5,-8,12,4,-12,92,84,68,30.19,29.97,29.74,10,9,5,5,0,,0.04,6,Snow,350
2012-10-30,21,13,5,12,9,0,92,72,37,29.86,29.67,29.51,10,6,1,22,4,33,0.04,8,Snow,23
2012-10-31,16,7,-2,9,3,-7,91,78,45,29.91,29.71,29.54,10,9,2,8,3,,0.00,6,Snow,60